2G9

Somerset County Airport

Somerset, Pennsylvania, USA
METAR K2G9 210935Z AUTO 15003KT 10SM CLR M03/M07 A3039 RMK AO2
Observed Flight Rules
Apr-21 @ 09:35 UTC (8 minutes ago) Visual Flight Rules
Wind Visibility Clouds
150° at 3 knots 10 miles
  • Clear skies
Temperatures Readings
Current -3°C / 27°F
Dewpoint -7°C / 19°F
Humidity 74%
Altimeter 30.39" Hg
Pressure 1029 hPa
Elevation 693
METAR K2G9 210935Z AUTO 15003KT 10SM CLR M03/M07 A3039 RMK AO2
Observed Flight Rules
Apr-21 @ 09:35 UTC
(8 minutes ago)
VFR
Wind Visibility
150° at 3 knots 10 miles
Clouds
  • Clear skies
Temperature Dewpoint
-3°C / 27°F -7°C / 19°F
Humidity Altimeter Pressure
74% 30.39" Hg 1029 hPa